Time;durP1;ratioP1;P1;durP2;ratioP2;P2;SDS_P1;SDS_P2;PMS_P1;PMS_P2;Temp;Humidity;BMP_temperature;BMP_pressure;BME280_temperature;BME280_humidity;BME280_pressure;Samples;Min_cycle;Max_cycle;Signal;HPM_P1;HPM_P2
2023/06/24 00:00:36;;;;;;;0.52;0.52;;;27.20;70.50;;;;;;5102132;28;20607;-82
2023/06/24 00:03:08;;;;;;;0.52;0.52;;;27.10;70.50;;;;;;5120050;27;20198;-83
2023/06/24 00:05:38;;;;;;;0.40;0.40;;;27.10;70.80;;;;;;5102872;28;20225;-83
2023/06/24 00:08:08;;;;;;;0.50;0.50;;;27.10;70.80;;;;;;5104281;27;20199;-82
2023/06/24 00:10:37;;;;;;;0.40;0.40;;;27.00;70.80;;;;;;5102991;28;20189;-83
2023/06/24 00:13:05;;;;;;;0.55;0.55;;;27.00;71.00;;;;;;5104879;27;20193;-81
2023/06/24 00:15:34;;;;;;;1.52;0.70;;;27.00;71.00;;;;;;5112145;27;20201;-83
2023/06/24 00:18:06;;;;;;;0.38;0.38;;;26.90;71.10;;;;;;5105669;27;20199;-82
2023/06/24 00:20:36;;;;;;;1.25;1.00;;;26.90;71.20;;;;;;5108140;27;20227;-82
2023/06/24 00:23:05;;;;;;;4.97;0.93;;;26.80;71.20;;;;;;5106643;27;20224;-82
2023/06/24 00:25:33;;;;;;;1.77;1.17;;;26.80;71.20;;;;;;5107856;27;20193;-81
2023/06/24 00:28:02;;;;;;;0.40;0.40;;;26.80;71.20;;;;;;5104098;27;20325;-83
2023/06/24 00:30:30;;;;;;;0.73;0.65;;;26.80;71.30;;;;;;5102631;27;20197;-81
2023/06/24 00:32:59;;;;;;;1.30;1.05;;;26.80;71.30;;;;;;5100663;28;20304;-82
2023/06/24 00:35:27;;;;;;;1.00;0.90;;;26.70;71.30;;;;;;5099689;28;20321;-80
2023/06/24 00:37:58;;;;;;;0.60;0.57;;;26.70;71.40;;;;;;5094047;28;20651;-83
2023/06/24 00:40:26;;;;;;;0.55;0.47;;;26.70;71.40;;;;;;5103233;27;22694;-81
2023/06/24 00:42:55;;;;;;;0.52;0.52;;;26.70;71.40;;;;;;5100080;28;20200;-82
2023/06/24 00:45:24;;;;;;;1.02;0.90;;;26.70;71.50;;;;;;5106701;28;20216;-81
2023/06/24 00:47:54;;;;;;;1.52;0.73;;;26.70;71.70;;;;;;5106415;28;20192;-82
2023/06/24 00:50:23;;;;;;;0.70;0.70;;;26.70;71.90;;;;;;5095248;28;20670;-82
2023/06/24 00:52:51;;;;;;;0.90;0.90;;;26.70;72.30;;;;;;5108091;28;20216;-82
2023/06/24 00:55:21;;;;;;;0.45;0.45;;;26.60;72.10;;;;;;5110605;28;20197;-80
2023/06/24 00:57:52;;;;;;;1.83;0.98;;;26.60;72.10;;;;;;5117882;28;20192;-81
2023/06/24 01:00:22;;;;;;;0.70;0.70;;;26.60;72.20;;;;;;5099252;27;20559;-81
2023/06/24 01:02:51;;;;;;;0.50;0.40;;;26.50;72.10;;;;;;5111147;28;20662;-82
2023/06/24 01:05:23;;;;;;;1.13;0.88;;;26.50;72.10;;;;;;5102571;28;20804;-80
2023/06/24 01:07:55;;;;;;;1.13;1.05;;;26.50;72.10;;;;;;5102040;28;20190;-82
2023/06/24 01:10:26;;;;;;;0.60;0.60;;;26.50;72.50;;;;;;5103919;28;20196;-80
2023/06/24 01:12:55;;;;;;;1.80;0.85;;;26.50;73.40;;;;;;5100310;28;20214;-82
2023/06/24 01:15:24;;;;;;;1.75;1.17;;;26.40;73.80;;;;;;5106743;27;20190;-80
2023/06/24 01:17:59;;;;;;;1.05;0.93;;;26.40;74.50;;;;;;5106109;28;20242;-82
2023/06/24 01:20:32;;;;;;;3.17;1.48;;;26.40;75.00;;;;;;5117766;27;20264;-81
2023/06/24 01:23:33;;;;;;;3.45;1.50;;;26.40;75.30;;;;;;5124517;27;20651;-81
2023/06/24 01:26:21;;;;;;;0.70;0.70;;;26.30;75.50;;;;;;5108462;27;20208;-81
2023/06/24 01:29:09;;;;;;;1.20;0.95;;;26.20;76.00;;;;;;5110835;27;20200;-81
2023/06/24 01:31:47;;;;;;;2.85;0.82;;;26.20;76.50;;;;;;5114359;27;20197;-81
2023/06/24 01:34:22;;;;;;;5.53;2.08;;;26.20;76.40;;;;;;5116990;27;20224;-81
2023/06/24 01:36:58;;;;;;;1.45;0.93;;;26.10;76.60;;;;;;5099823;27;22604;-82
2023/06/24 01:39:28;;;;;;;0.95;0.75;;;26.10;76.70;;;;;;5116466;27;20193;-81
2023/06/24 01:42:01;;;;;;;1.85;1.42;;;26.10;77.00;;;;;;5101316;28;20193;-81
2023/06/24 01:44:30;;;;;;;0.50;0.50;;;26.10;77.30;;;;;;5108332;27;20255;-82
2023/06/24 01:47:02;;;;;;;2.47;0.77;;;26.00;77.10;;;;;;5109823;27;20188;-82
2023/06/24 01:49:33;;;;;;;1.45;1.10;;;26.00;78.20;;;;;;5105819;27;20190;-81
2023/06/24 01:52:04;;;;;;;0.60;0.60;;;26.00;77.50;;;;;;5102737;27;20212;-81
2023/06/24 01:54:35;;;;;;;1.58;0.93;;;26.00;77.50;;;;;;5100860;27;20193;-81
2023/06/24 01:57:06;;;;;;;0.50;0.50;;;26.00;77.40;;;;;;5112869;27;20195;-81
2023/06/24 01:59:36;;;;;;;0.70;0.70;;;26.00;76.90;;;;;;5094517;28;20194;-81
2023/06/24 02:02:07;;;;;;;0.55;0.43;;;26.00;76.60;;;;;;5107893;27;20197;-80
2023/06/24 02:04:37;;;;;;;1.02;0.70;;;26.00;76.50;;;;;;5121023;27;20233;-81
2023/06/24 02:07:07;;;;;;;0.95;0.63;;;26.00;76.30;;;;;;5113774;27;20190;-81
2023/06/24 02:09:36;;;;;;;0.40;0.40;;;26.00;76.20;;;;;;5113359;28;20215;-80
2023/06/24 02:12:07;;;;;;;1.23;0.70;;;26.00;76.50;;;;;;5103607;27;20590;-83
2023/06/24 02:14:36;;;;;;;0.43;0.43;;;25.90;76.30;;;;;;5122999;27;20949;-82
2023/06/24 02:17:09;;;;;;;0.50;0.50;;;25.90;76.10;;;;;;5104058;27;20200;-81
2023/06/24 02:19:39;;;;;;;0.35;0.35;;;25.90;76.00;;;;;;5114807;27;20181;-81
2023/06/24 02:22:10;;;;;;;0.52;0.52;;;25.90;75.90;;;;;;5103046;28;20213;-82
2023/06/24 02:24:39;;;;;;;0.77;0.63;;;25.90;75.80;;;;;;5095476;27;20193;-83
2023/06/24 02:27:09;;;;;;;0.32;0.32;;;25.90;75.70;;;;;;5096759;27;20560;-82
2023/06/24 02:29:38;;;;;;;1.52;1.13;;;25.90;75.60;;;;;;5123402;27;20198;-83
2023/06/24 02:32:09;;;;;;;0.68;0.68;;;25.90;75.50;;;;;;5103924;27;20201;-82
2023/06/24 02:34:38;;;;;;;1.00;0.73;;;25.90;75.50;;;;;;5123699;27;20188;-81
2023/06/24 02:37:06;;;;;;;1.10;0.52;;;25.90;75.50;;;;;;5119080;27;20533;-81
2023/06/24 02:39:37;;;;;;;0.40;0.40;;;25.90;76.30;;;;;;5128707;27;20188;-81
2023/06/24 02:42:06;;;;;;;0.68;0.50;;;25.90;75.50;;;;;;5129855;27;20555;-81
2023/06/24 02:44:34;;;;;;;0.50;0.50;;;25.90;75.50;;;;;;5119461;27;20648;-81
2023/06/24 02:47:03;;;;;;;0.95;0.35;;;25.80;75.60;;;;;;5098720;27;20643;-82
2023/06/24 02:49:34;;;;;;;1.00;0.77;;;25.80;75.60;;;;;;5112035;27;20194;-83
2023/06/24 02:52:02;;;;;;;0.65;0.63;;;25.80;75.80;;;;;;5097243;27;20190;-83
2023/06/24 02:54:31;;;;;;;0.95;0.85;;;25.80;75.90;;;;;;5108425;28;20733;-81
2023/06/24 02:57:01;;;;;;;1.05;0.82;;;25.80;75.90;;;;;;5092527;27;20197;-82
2023/06/24 02:59:29;;;;;;;2.33;1.27;;;25.80;75.90;;;;;;5104526;27;20287;-83
2023/06/24 03:01:58;;;;;;;1.05;0.63;;;25.70;75.90;;;;;;5107747;27;20642;-82
2023/06/24 03:04:27;;;;;;;1.38;0.82;;;25.70;75.90;;;;;;5120675;27;20249;-82
2023/06/24 03:06:59;;;;;;;1.65;0.85;;;25.70;76.00;;;;;;5102404;27;20528;-81
2023/06/24 03:09:28;;;;;;;1.08;0.98;;;25.70;76.10;;;;;;5117130;27;20198;-80
2023/06/24 03:11:56;;;;;;;1.35;1.02;;;25.70;76.10;;;;;;5103055;27;20193;-81
2023/06/24 03:14:24;;;;;;;0.90;0.85;;;25.70;76.10;;;;;;5116421;27;20239;-81
2023/06/24 03:16:53;;;;;;;2.53;1.25;;;25.70;76.20;;;;;;5110836;27;20196;-80
2023/06/24 03:19:21;;;;;;;2.38;0.93;;;25.70;76.20;;;;;;5102758;27;20200;-81
2023/06/24 03:21:49;;;;;;;2.13;0.77;;;25.70;76.10;;;;;;5106383;27;20190;-82
2023/06/24 03:24:19;;;;;;;0.52;0.52;;;25.70;76.20;;;;;;5100414;28;20213;-83
2023/06/24 03:26:50;;;;;;;1.30;1.20;;;25.70;76.30;;;;;;5097508;28;20194;-82
2023/06/24 03:29:18;;;;;;;1.35;1.17;;;25.80;76.40;;;;;;5105823;27;20189;-83
2023/06/24 03:31:47;;;;;;;2.55;0.70;;;25.80;76.40;;;;;;5106732;27;20189;-82
2023/06/24 03:34:16;;;;;;;0.88;0.63;;;25.80;76.50;;;;;;5108268;27;20305;-81
2023/06/24 03:36:44;;;;;;;0.60;0.60;;;25.80;76.60;;;;;;5103677;27;20188;-83
2023/06/24 03:39:13;;;;;;;1.90;1.45;;;25.80;76.70;;;;;;5109153;27;20197;-83
2023/06/24 03:41:42;;;;;;;1.33;0.93;;;25.80;76.90;;;;;;5096554;27;20204;-82
2023/06/24 03:44:11;;;;;;;1.60;1.20;;;25.80;77.00;;;;;;5104522;28;20203;-82
2023/06/24 03:46:39;;;;;;;1.70;1.08;;;25.80;77.00;;;;;;5091561;28;20566;-82
2023/06/24 03:49:08;;;;;;;1.52;0.82;;;25.90;77.10;;;;;;5103342;27;20184;-82
2023/06/24 03:51:37;;;;;;;1.30;0.80;;;25.90;77.20;;;;;;5094765;28;20189;-80
2023/06/24 03:54:05;;;;;;;0.80;0.73;;;25.90;77.20;;;;;;5098621;27;20213;-81
2023/06/24 03:56:33;;;;;;;1.52;1.02;;;26.00;77.30;;;;;;5091680;28;20198;-82
2023/06/24 03:59:03;;;;;;;1.05;0.70;;;25.90;77.40;;;;;;5097629;27;20197;-82
2023/06/24 04:01:34;;;;;;;1.58;0.98;;;26.00;77.50;;;;;;5099423;28;20188;-82
2023/06/24 04:04:02;;;;;;;15.18;1.15;;;26.00;77.60;;;;;;5092031;28;20270;-83
2023/06/24 04:06:31;;;;;;;1.67;1.30;;;26.00;77.60;;;;;;5092346;28;20316;-81
2023/06/24 04:08:59;;;;;;;0.70;0.70;;;26.10;77.70;;;;;;5103464;27;20193;-83
2023/06/24 04:11:28;;;;;;;2.25;1.52;;;26.10;77.90;;;;;;5097374;28;20200;-82
2023/06/24 04:13:56;;;;;;;0.70;0.70;;;26.10;78.00;;;;;;5096060;28;20752;-82
2023/06/24 04:16:26;;;;;;;1.52;0.88;;;26.10;78.00;;;;;;5103574;27;20200;-81
2023/06/24 04:18:54;;;;;;;1.00;0.68;;;26.20;78.00;;;;;;5103808;27;20201;-83
2023/06/24 04:21:23;;;;;;;1.25;0.57;;;26.20;78.00;;;;;;5098778;28;20234;-83
2023/06/24 04:23:51;;;;;;;0.70;0.70;;;26.30;78.10;;;;;;5093868;28;20207;-83
2023/06/24 04:26:19;;;;;;;0.73;0.60;;;26.30;78.10;;;;;;5103655;28;20200;-82
2023/06/24 04:28:48;;;;;;;3.47;1.05;;;26.40;78.10;;;;;;5097281;28;20189;-83
2023/06/24 04:31:16;;;;;;;2.03;1.23;;;26.40;78.10;;;;;;5098245;27;20639;-82
2023/06/24 04:33:46;;;;;;;3.15;1.20;;;26.40;78.50;;;;;;5107256;28;20209;-81
2023/06/24 04:36:16;;;;;;;2.35;0.88;;;26.50;78.40;;;;;;5099977;27;20559;-80
2023/06/24 04:38:44;;;;;;;1.15;0.90;;;26.60;78.70;;;;;;5114551;28;20197;-82
2023/06/24 04:41:13;;;;;;;2.15;1.13;;;26.60;78.70;;;;;;5107515;27;20192;-82
2023/06/24 04:43:42;;;;;;;0.88;0.85;;;26.70;78.60;;;;;;5111714;27;20256;-81
2023/06/24 04:46:10;;;;;;;1.92;1.55;;;26.70;78.60;;;;;;5107185;28;20189;-81
2023/06/24 04:48:39;;;;;;;1.25;1.10;;;26.70;78.80;;;;;;5100072;28;20923;-81
2023/06/24 04:51:09;;;;;;;3.65;1.58;;;26.80;78.80;;;;;;5101700;28;20238;-81
2023/06/24 04:53:38;;;;;;;2.17;1.10;;;26.80;78.50;;;;;;5110637;28;20540;-81
2023/06/24 04:56:06;;;;;;;0.70;0.70;;;26.90;78.50;;;;;;5099353;28;20230;-82
2023/06/24 04:58:35;;;;;;;4.43;1.08;;;26.90;78.40;;;;;;5107390;27;20722;-82
2023/06/24 05:01:03;;;;;;;1.88;1.40;;;27.00;78.50;;;;;;5099962;28;20189;-81
2023/06/24 05:03:31;;;;;;;1.92;1.45;;;27.00;78.40;;;;;;5101076;27;20205;-81
2023/06/24 05:06:00;;;;;;;0.60;0.60;;;27.10;78.40;;;;;;5100686;28;20228;-81
2023/06/24 05:08:29;;;;;;;1.20;0.93;;;27.10;78.30;;;;;;5100368;27;20444;-79
2023/06/24 05:10:58;;;;;;;1.23;0.68;;;27.20;78.20;;;;;;5100696;27;20190;-81
2023/06/24 05:13:29;;;;;;;0.60;0.60;;;27.20;78.10;;;;;;5101977;27;20195;-80
2023/06/24 05:15:57;;;;;;;0.75;0.60;;;27.20;77.90;;;;;;5100561;27;20197;-82
2023/06/24 05:18:26;;;;;;;1.35;0.98;;;27.30;77.80;;;;;;5103053;27;20249;-81
2023/06/24 05:20:54;;;;;;;2.80;1.75;;;27.40;77.80;;;;;;5103761;27;20778;-81
2023/06/24 05:23:22;;;;;;;1.88;1.30;;;27.40;77.70;;;;;;5107589;27;20242;-81
2023/06/24 05:25:52;;;;;;;1.13;0.88;;;27.40;77.70;;;;;;5097746;27;20243;-81
2023/06/24 05:28:21;;;;;;;1.70;1.30;;;27.50;77.60;;;;;;5100097;27;20188;-81
2023/06/24 05:30:49;;;;;;;3.53;2.08;;;27.50;77.50;;;;;;5098698;28;20247;-80
2023/06/24 05:33:17;;;;;;;1.20;0.93;;;27.60;77.40;;;;;;5091141;27;20295;-79
2023/06/24 05:35:46;;;;;;;13.65;2.15;;;27.60;77.20;;;;;;5100303;27;20224;-81
2023/06/24 05:38:14;;;;;;;1.90;0.77;;;27.60;77.10;;;;;;5112714;28;20190;-81
2023/06/24 05:40:42;;;;;;;4.55;2.03;;;27.70;77.00;;;;;;5113631;27;20202;-82
2023/06/24 05:43:12;;;;;;;0.55;0.55;;;27.70;76.80;;;;;;5126099;27;20203;-82
2023/06/24 05:45:41;;;;;;;1.13;0.90;;;27.80;76.70;;;;;;5114171;27;20931;-82
2023/06/24 05:48:09;;;;;;;0.75;0.75;;;27.80;76.40;;;;;;5129408;27;20279;-81
2023/06/24 05:50:37;;;;;;;0.85;0.60;;;27.90;76.50;;;;;;5102272;27;21478;-81
2023/06/24 05:53:06;;;;;;;1.00;0.90;;;27.90;76.40;;;;;;5108349;27;20185;-83
2023/06/24 05:55:34;;;;;;;1.33;0.80;;;28.00;76.60;;;;;;5114049;27;20270;-81
2023/06/24 05:58:03;;;;;;;2.75;1.27;;;28.10;76.30;;;;;;5094150;28;20194;-83
2023/06/24 06:00:33;;;;;;;1.58;0.88;;;28.10;76.10;;;;;;5098188;28;20589;-81
2023/06/24 06:03:01;;;;;;;1.48;1.20;;;28.10;76.10;;;;;;5103774;28;20189;-83
2023/06/24 06:05:29;;;;;;;1.92;1.38;;;28.20;75.80;;;;;;5104059;28;20632;-83
2023/06/24 06:07:58;;;;;;;1.77;1.38;;;28.20;75.60;;;;;;5104136;28;20205;-82
2023/06/24 06:10:26;;;;;;;2.05;1.67;;;28.30;75.70;;;;;;5100099;28;20209;-82
2023/06/24 06:12:55;;;;;;;2.45;1.35;;;28.30;75.50;;;;;;5103412;28;20197;-83
2023/06/24 06:15:23;;;;;;;1.25;1.02;;;28.40;75.40;;;;;;5110717;27;20225;-81
2023/06/24 06:17:53;;;;;;;1.92;1.25;;;28.50;75.40;;;;;;5103545;27;20194;-81
2023/06/24 06:20:22;;;;;;;1.70;1.15;;;28.60;75.30;;;;;;5096839;28;20556;-80
2023/06/24 06:22:51;;;;;;;0.70;0.70;;;28.60;75.20;;;;;;5102973;28;20196;-83
2023/06/24 06:25:19;;;;;;;1.25;1.15;;;28.70;75.20;;;;;;5102214;28;20199;-82
2023/06/24 06:27:47;;;;;;;2.13;1.15;;;28.70;75.10;;;;;;5096949;28;20201;-82
2023/06/24 06:30:16;;;;;;;1.80;0.73;;;28.80;74.90;;;;;;5096593;28;20195;-82
2023/06/24 06:32:44;;;;;;;1.75;1.17;;;28.90;74.80;;;;;;5102360;28;20213;-83
2023/06/24 06:35:14;;;;;;;1.08;0.63;;;29.00;74.70;;;;;;5103689;28;20220;-82
2023/06/24 06:37:42;;;;;;;1.88;0.90;;;29.10;74.50;;;;;;5103277;27;20204;-83
2023/06/24 06:40:11;;;;;;;0.85;0.75;;;29.10;74.20;;;;;;5103501;27;20561;-81
2023/06/24 06:42:40;;;;;;;1.27;1.05;;;29.20;74.00;;;;;;5106520;28;20202;-81
2023/06/24 06:45:09;;;;;;;1.67;1.50;;;29.30;74.00;;;;;;5089901;27;20193;-80
2023/06/24 06:47:37;;;;;;;1.95;1.10;;;29.40;73.90;;;;;;5104948;27;20542;-83
2023/06/24 06:50:07;;;;;;;2.33;1.30;;;29.50;73.80;;;;;;5101025;28;20193;-81
2023/06/24 06:52:38;;;;;;;3.35;1.63;;;29.50;73.40;;;;;;5093356;28;20668;-82
2023/06/24 06:55:07;;;;;;;1.65;1.10;;;29.60;73.10;;;;;;5096775;28;20223;-81
2023/06/24 06:57:35;;;;;;;1.13;0.70;;;29.60;73.10;;;;;;5100865;27;20323;-80
2023/06/24 07:00:04;;;;;;;1.38;1.10;;;29.70;73.20;;;;;;5090900;28;20643;-84
2023/06/24 07:02:32;;;;;;;0.93;0.65;;;29.80;73.10;;;;;;5094630;27;20205;-81
2023/06/24 07:05:01;;;;;;;1.55;1.02;;;29.90;72.90;;;;;;5091116;27;20264;-83
2023/06/24 07:07:30;;;;;;;1.80;1.33;;;29.90;72.90;;;;;;5101184;27;20987;-83
2023/06/24 07:10:00;;;;;;;1.45;0.95;;;30.00;72.90;;;;;;5106422;27;20197;-84
2023/06/24 07:12:28;;;;;;;2.40;1.48;;;30.00;73.00;;;;;;5098004;27;20197;-82
2023/06/24 07:14:57;;;;;;;1.92;1.35;;;30.10;73.00;;;;;;5094944;27;20216;-82
2023/06/24 07:17:25;;;;;;;1.02;0.95;;;30.20;72.90;;;;;;5092430;28;20235;-81
2023/06/24 07:19:54;;;;;;;1.77;1.23;;;30.20;72.80;;;;;;5093648;28;20622;-79
2023/06/24 07:22:24;;;;;;;2.13;1.38;;;30.30;72.60;;;;;;5090672;28;20190;-81
2023/06/24 07:24:53;;;;;;;1.50;0.93;;;30.30;72.30;;;;;;5112687;27;20667;-82
2023/06/24 07:27:25;;;;;;;3.70;1.75;;;30.40;72.50;;;;;;5110131;27;20292;-83
2023/06/24 07:29:56;;;;;;;2.50;1.48;;;30.40;72.50;;;;;;5097319;27;20993;-82
2023/06/24 07:32:24;;;;;;;1.10;1.00;;;30.50;72.40;;;;;;5107540;27;20444;-81
2023/06/24 07:34:54;;;;;;;1.85;1.20;;;30.60;73.10;;;;;;5105181;27;20197;-81
2023/06/24 07:37:22;;;;;;;1.48;1.15;;;30.60;72.20;;;;;;5107964;27;20308;-84
2023/06/24 07:39:53;;;;;;;1.85;1.17;;;30.60;71.40;;;;;;5101616;27;20205;-83
2023/06/24 07:42:23;;;;;;;0.82;0.82;;;30.60;71.20;;;;;;5113540;27;20206;-82
2023/06/24 07:44:52;;;;;;;1.25;1.05;;;30.70;71.20;;;;;;5104650;28;20564;-83
2023/06/24 07:47:21;;;;;;;1.40;1.15;;;30.70;71.10;;;;;;5102797;27;20204;-83
2023/06/24 07:49:52;;;;;;;2.10;1.45;;;30.80;71.10;;;;;;5110658;27;20200;-83
2023/06/24 07:52:20;;;;;;;1.58;1.05;;;30.80;70.90;;;;;;5103347;27;20606;-83
2023/06/24 07:54:49;;;;;;;1.60;1.25;;;30.80;70.70;;;;;;5116856;27;20201;-82
2023/06/24 07:57:17;;;;;;;2.58;1.80;;;30.90;70.80;;;;;;5104428;27;20201;-82
2023/06/24 07:59:47;;;;;;;3.08;1.45;;;30.90;70.10;;;;;;5104065;27;20205;-82
2023/06/24 08:02:16;;;;;;;1.63;1.23;;;31.00;69.70;;;;;;5114269;27;20192;-81
2023/06/24 08:04:44;;;;;;;2.05;1.42;;;31.00;69.20;;;;;;5103970;28;20282;-82
2023/06/24 08:07:13;;;;;;;2.50;0.90;;;31.10;69.30;;;;;;5110907;27;20204;-82
2023/06/24 08:09:43;;;;;;;2.22;1.13;;;31.10;69.20;;;;;;5119821;27;20194;-84
2023/06/24 08:12:12;;;;;;;2.15;1.20;;;31.10;69.10;;;;;;5105827;28;20283;-83
2023/06/24 08:14:40;;;;;;;1.52;1.25;;;31.20;69.10;;;;;;5107404;28;20196;-82
2023/06/24 08:17:10;;;;;;;1.95;1.15;;;31.20;69.10;;;;;;5094041;28;20775;-83
2023/06/24 08:19:38;;;;;;;1.10;1.00;;;31.30;68.60;;;;;;5096317;28;20204;-84
2023/06/24 08:22:06;;;;;;;2.35;1.70;;;31.30;68.50;;;;;;5095236;28;20284;-85
2023/06/24 08:24:35;;;;;;;2.13;1.35;;;31.40;68.30;;;;;;5096566;28;20193;-85
2023/06/24 08:27:04;;;;;;;2.08;1.52;;;31.40;68.40;;;;;;5091069;28;20642;-84
2023/06/24 08:29:33;;;;;;;1.63;1.30;;;31.40;68.20;;;;;;5090506;28;20197;-84
2023/06/24 08:32:01;;;;;;;2.67;1.88;;;31.50;68.30;;;;;;5095892;28;20641;-87
2023/06/24 08:34:31;;;;;;;2.33;1.45;;;31.50;67.50;;;;;;5101387;28;20201;-85
2023/06/24 08:36:59;;;;;;;2.75;1.15;;;31.60;67.00;;;;;;5098408;28;20221;-85
2023/06/24 08:39:27;;;;;;;3.83;1.67;;;31.60;66.60;;;;;;5115285;28;20778;-88
2023/06/24 08:42:19;;;;;;;1.92;1.60;;;31.70;66.30;;;;;;5105384;28;20194;-86
2023/06/24 08:44:48;;;;;;;1.20;1.10;;;31.70;64.90;;;;;;5097592;28;20216;-83
2023/06/24 08:47:17;;;;;;;2.78;1.77;;;31.70;65.50;;;;;;5093940;27;20206;-84
2023/06/24 08:49:49;;;;;;;3.55;1.95;;;31.80;65.40;;;;;;5102921;28;20258;-84
2023/06/24 08:52:18;;;;;;;1.63;1.33;;;31.80;65.30;;;;;;5089780;28;20198;-85
2023/06/24 08:54:49;;;;;;;2.92;1.52;;;31.90;64.90;;;;;;5109032;28;20312;-86
2023/06/24 08:57:18;;;;;;;2.00;1.15;;;31.90;63.90;;;;;;5094631;28;20213;-84
2023/06/24 08:59:48;;;;;;;1.38;0.98;;;32.00;64.00;;;;;;5089746;28;20197;-85
2023/06/24 09:02:17;;;;;;;1.85;1.45;;;32.00;63.20;;;;;;5098345;28;20198;-84
2023/06/24 09:04:47;;;;;;;1.38;0.75;;;32.10;63.00;;;;;;5093429;28;20245;-86
2023/06/24 09:07:27;;;;;;;2.20;1.30;;;32.10;61.40;;;;;;5094768;27;20712;-84
2023/06/24 09:09:56;;;;;;;1.83;1.00;;;32.20;60.50;;;;;;5096283;28;20285;-84
2023/06/24 09:12:26;;;;;;;1.50;1.40;;;32.20;60.20;;;;;;5096665;28;20192;-85
2023/06/24 09:14:55;;;;;;;2.83;1.85;;;32.30;60.90;;;;;;5092257;28;20674;-82
2023/06/24 09:17:23;;;;;;;2.15;1.55;;;32.30;59.90;;;;;;5100840;28;20221;-85
2023/06/24 09:19:53;;;;;;;3.03;1.08;;;32.40;60.20;;;;;;5100647;27;20275;-83
2023/06/24 09:22:21;;;;;;;1.20;1.10;;;32.40;60.50;;;;;;5099530;28;20197;-85
2023/06/24 09:24:50;;;;;;;2.05;1.00;;;32.40;60.10;;;;;;5111192;28;20203;-85
2023/06/24 09:27:21;;;;;;;1.02;0.93;;;32.50;60.10;;;;;;5092275;28;20204;-83
2023/06/24 09:29:50;;;;;;;1.58;1.25;;;32.60;60.50;;;;;;5086385;28;20209;-83
2023/06/24 09:32:18;;;;;;;2.20;1.63;;;32.50;60.20;;;;;;5103360;28;20201;-84
2023/06/24 09:34:48;;;;;;;1.30;1.20;;;32.60;59.80;;;;;;5106988;28;20216;-84
2023/06/24 09:37:24;;;;;;;1.55;1.30;;;32.70;59.70;;;;;;5090949;28;20223;-84
2023/06/24 09:39:53;;;;;;;0.55;0.55;;;32.70;59.70;;;;;;5109546;28;20193;-85
2023/06/24 09:42:23;;;;;;;1.77;1.00;;;32.80;59.60;;;;;;5115182;28;20680;-84
2023/06/24 09:44:56;;;;;;;2.22;1.27;;;32.90;58.80;;;;;;5111839;27;20200;-85
2023/06/24 09:47:27;;;;;;;1.95;0.70;;;32.90;58.20;;;;;;5107409;27;20197;-84
2023/06/24 09:49:56;;;;;;;1.85;1.20;;;33.00;59.40;;;;;;5104322;28;20205;-83
2023/06/24 09:52:27;;;;;;;1.58;0.70;;;33.00;58.40;;;;;;5111166;27;20622;-84
2023/06/24 09:54:57;;;;;;;1.27;0.90;;;33.20;58.70;;;;;;5117138;27;20193;-84
2023/06/24 09:57:30;;;;;;;1.52;1.23;;;33.20;58.60;;;;;;5094132;28;20255;-85
2023/06/24 09:59:59;;;;;;;1.58;0.93;;;33.30;58.50;;;;;;5101187;27;20937;-85
2023/06/24 10:02:31;;;;;;;2.05;0.82;;;33.40;57.20;;;;;;5109913;27;20666;-85
2023/06/24 10:05:01;;;;;;;0.82;0.68;;;33.40;56.00;;;;;;5105128;28;20278;-83
2023/06/24 10:07:32;;;;;;;2.05;1.55;;;33.40;55.30;;;;;;5096069;27;20295;-85
2023/06/24 10:10:03;;;;;;;0.65;0.57;;;33.50;55.90;;;;;;5111419;28;20223;-84
2023/06/24 10:12:32;;;;;;;1.92;1.15;;;33.60;56.00;;;;;;5108102;27;20252;-85
2023/06/24 10:15:01;;;;;;;2.47;1.35;;;33.70;56.20;;;;;;5098094;28;20195;-84
2023/06/24 10:17:31;;;;;;;1.33;1.00;;;33.80;56.20;;;;;;5102351;27;20213;-84
2023/06/24 10:20:06;;;;;;;1.70;1.33;;;33.70;54.70;;;;;;5110557;28;20837;-85
2023/06/24 10:22:36;;;;;;;3.42;0.93;;;33.90;55.20;;;;;;5100036;28;20531;-85
2023/06/24 10:25:08;;;;;;;2.03;1.30;;;34.00;55.60;;;;;;5105888;28;20198;-83
2023/06/24 10:27:42;;;;;;;1.60;1.05;;;34.00;55.60;;;;;;5116760;27;20196;-84
2023/06/24 10:30:19;;;;;;;1.92;1.45;;;34.20;55.80;;;;;;5105427;27;20249;-84
2023/06/24 10:32:54;;;;;;;1.45;1.10;;;34.30;55.70;;;;;;5102618;27;20201;-84
2023/06/24 10:35:29;;;;;;;1.05;0.95;;;34.30;55.60;;;;;;5099290;28;20661;-84
2023/06/24 10:38:01;;;;;;;1.17;1.08;;;34.40;55.60;;;;;;5101475;28;20224;-84
2023/06/24 10:40:39;;;;;;;1.02;0.70;;;34.40;55.00;;;;;;5100271;27;20199;-84
2023/06/24 10:43:30;;;;;;;2.00;1.20;;;34.40;55.20;;;;;;5104234;27;20204;-85
2023/06/24 10:45:59;;;;;;;1.25;0.95;;;34.40;55.50;;;;;;5097206;27;20750;-85
2023/06/24 10:48:28;;;;;;;0.75;0.73;;;34.40;55.60;;;;;;5101815;27;20482;-84
2023/06/24 10:50:56;;;;;;;1.08;0.82;;;34.40;55.60;;;;;;5098375;27;20292;-85
2023/06/24 10:53:30;;;;;;;1.85;1.20;;;34.40;55.60;;;;;;5110057;27;20211;-85
2023/06/24 10:55:59;;;;;;;1.50;0.75;;;34.30;55.50;;;;;;5097456;27;20270;-84
2023/06/24 10:58:28;;;;;;;0.93;0.90;;;34.40;55.40;;;;;;5105666;28;20223;-85
2023/06/24 11:01:08;;;;;;;1.17;0.93;;;34.40;55.30;;;;;;5115698;27;20202;-84
2023/06/24 11:03:39;;;;;;;1.30;1.15;;;34.50;55.30;;;;;;5116848;27;20260;-84
2023/06/24 11:06:11;;;;;;;1.05;0.65;;;34.60;54.90;;;;;;5114106;27;20259;-86
2023/06/24 11:08:46;;;;;;;0.93;0.85;;;34.70;54.50;;;;;;5096871;28;20658;-84
2023/06/24 11:11:22;;;;;;;1.73;1.23;;;34.70;54.50;;;;;;5111560;27;20196;-85
2023/06/24 11:13:51;;;;;;;0.82;0.65;;;34.80;54.00;;;;;;5116991;27;20224;-83
2023/06/24 11:16:23;;;;;;;2.88;1.75;;;34.80;54.10;;;;;;5096354;27;20213;-83
2023/06/24 11:18:51;;;;;;;2.13;1.25;;;34.90;53.90;;;;;;5097827;27;20209;-84
2023/06/24 11:21:19;;;;;;;1.85;1.23;;;34.90;53.70;;;;;;5106878;27;20288;-83
2023/06/24 11:23:49;;;;;;;0.88;0.80;;;34.90;53.40;;;;;;5100336;27;20197;-83
2023/06/24 11:26:17;;;;;;;1.27;0.82;;;35.00;53.60;;;;;;5092604;27;20201;-85
2023/06/24 11:28:49;;;;;;;1.55;0.98;;;35.00;53.60;;;;;;5095414;27;20201;-83
2023/06/24 11:31:17;;;;;;;0.85;0.85;;;35.10;53.40;;;;;;5089734;28;20558;-82
2023/06/24 11:33:49;;;;;;;0.98;0.93;;;35.30;53.60;;;;;;5104540;27;20193;-84
2023/06/24 11:36:19;;;;;;;2.00;1.13;;;35.30;53.10;;;;;;5096423;28;20808;-84
2023/06/24 11:38:50;;;;;;;1.10;1.00;;;35.30;52.50;;;;;;5111598;27;20752;-85
2023/06/24 11:41:23;;;;;;;1.05;1.00;;;35.20;52.80;;;;;;5118577;27;20203;-84
2023/06/24 11:43:51;;;;;;;1.60;1.23;;;35.20;52.60;;;;;;5107555;27;20198;-89
2023/06/24 11:46:22;;;;;;;1.55;1.08;;;35.00;51.60;;;;;;5101503;27;20197;-84
2023/06/24 11:48:51;;;;;;;2.38;1.42;;;35.00;51.90;;;;;;5127131;27;20654;-84
2023/06/24 11:51:19;;;;;;;1.50;1.40;;;35.00;51.80;;;;;;5093188;27;20201;-83
2023/06/24 11:53:49;;;;;;;3.33;0.70;;;35.00;52.10;;;;;;5096048;27;20239;-83
2023/06/24 11:56:18;;;;;;;2.05;1.15;;;35.00;52.20;;;;;;5094319;27;20190;-83
2023/06/24 11:58:51;;;;;;;0.50;0.50;;;35.10;52.00;;;;;;5099846;27;20570;-83
2023/06/24 12:01:19;;;;;;;1.75;1.48;;;35.20;52.30;;;;;;5105329;27;20217;-85
2023/06/24 12:03:47;;;;;;;1.42;0.90;;;35.30;52.30;;;;;;5093984;28;20189;-83
2023/06/24 12:06:16;;;;;;;0.93;0.63;;;35.40;52.40;;;;;;5101472;27;20233;-85
2023/06/24 12:08:45;;;;;;;0.82;0.65;;;35.50;52.60;;;;;;5108814;27;20201;-84
2023/06/24 12:11:21;;;;;;;1.85;1.45;;;35.50;51.90;;;;;;5101697;27;20193;-84
2023/06/24 12:13:49;;;;;;;2.17;1.58;;;35.60;51.40;;;;;;5120267;27;20523;-83
2023/06/24 12:16:18;;;;;;;1.55;0.63;;;35.70;50.80;;;;;;5105119;27;20721;-84
2023/06/24 12:18:46;;;;;;;1.95;1.45;;;35.80;50.80;;;;;;5090805;28;20232;-84
2023/06/24 12:21:14;;;;;;;1.38;1.27;;;35.90;51.10;;;;;;5111507;27;20198;-84
2023/06/24 12:23:43;;;;;;;1.08;1.00;;;36.00;51.20;;;;;;5095970;28;20575;-84
2023/06/24 12:26:11;;;;;;;2.00;1.02;;;36.10;50.90;;;;;;5098781;28;20200;-85
2023/06/24 12:28:41;;;;;;;1.65;0.90;;;36.30;51.30;;;;;;5091460;28;20198;-84
2023/06/24 12:31:09;;;;;;;1.27;0.95;;;36.40;51.60;;;;;;5113018;27;20201;-84
2023/06/24 12:33:38;;;;;;;1.02;0.75;;;36.50;51.00;;;;;;5107125;28;20608;-85
2023/06/24 12:36:07;;;;;;;1.40;1.20;;;36.50;51.00;;;;;;5108868;28;20276;-85
2023/06/24 12:38:35;;;;;;;1.35;1.00;;;36.60;50.70;;;;;;5091250;28;20225;-85
2023/06/24 12:41:03;;;;;;;1.95;0.85;;;36.60;50.70;;;;;;5108379;28;20197;-84
2023/06/24 12:43:33;;;;;;;1.23;0.50;;;36.50;49.70;;;;;;5090657;28;20197;-85
2023/06/24 12:46:03;;;;;;;1.20;1.00;;;36.50;50.20;;;;;;5091245;28;20206;-85
2023/06/24 12:48:31;;;;;;;2.00;1.40;;;36.70;50.50;;;;;;5093974;28;20711;-83
2023/06/24 12:50:59;;;;;;;1.63;1.23;;;36.70;49.40;;;;;;5111773;28;20203;-84
2023/06/24 12:53:28;;;;;;;1.48;1.30;;;36.80;48.70;;;;;;5107960;28;20196;-85
2023/06/24 12:55:56;;;;;;;1.80;1.50;;;36.90;48.00;;;;;;5102036;27;20574;-83
2023/06/24 12:58:26;;;;;;;1.65;1.20;;;36.90;47.40;;;;;;5090122;28;20590;-83
2023/06/24 13:00:54;;;;;;;1.30;0.88;;;36.80;47.50;;;;;;5090739;28;20194;-85